sensor_id;sensor_type;location;lat;lon;timestamp;temperature;humidity
46159;DHT22;31888;44.512;26.104;2022-08-19T00:00:45;24.10;95.30
46159;DHT22;31888;44.512;26.104;2022-08-19T00:02:50;24.20;95.20
46159;DHT22;31888;44.512;26.104;2022-08-19T00:04:55;24.20;95.30
46159;DHT22;31888;44.512;26.104;2022-08-19T00:07:01;24.30;94.90
46159;DHT22;31888;44.512;26.104;2022-08-19T00:09:08;24.40;94.90
46159;DHT22;31888;44.512;26.104;2022-08-19T00:11:13;24.30;94.90
46159;DHT22;31888;44.512;26.104;2022-08-19T00:13:27;24.30;94.80
46159;DHT22;31888;44.512;26.104;2022-08-19T00:15:32;24.40;94.60
46159;DHT22;31888;44.512;26.104;2022-08-19T00:17:36;24.40;94.60
46159;DHT22;31888;44.512;26.104;2022-08-19T00:19:43;24.30;94.50
46159;DHT22;31888;44.512;26.104;2022-08-19T00:21:48;24.40;94.60
46159;DHT22;31888;44.512;26.104;2022-08-19T00:23:55;24.20;94.80
46159;DHT22;31888;44.512;26.104;2022-08-19T00:26:01;24.20;94.70
46159;DHT22;31888;44.512;26.104;2022-08-19T00:28:06;24.20;94.60
46159;DHT22;31888;44.512;26.104;2022-08-19T00:30:11;24.20;94.80
46159;DHT22;31888;44.512;26.104;2022-08-19T00:32:16;24.30;94.50
46159;DHT22;31888;44.512;26.104;2022-08-19T00:34:21;24.30;94.70
46159;DHT22;31888;44.512;26.104;2022-08-19T00:36:26;24.20;94.70
46159;DHT22;31888;44.512;26.104;2022-08-19T00:38:31;24.20;94.70
46159;DHT22;31888;44.512;26.104;2022-08-19T00:40:42;24.30;94.50
46159;DHT22;31888;44.512;26.104;2022-08-19T00:42:49;24.30;94.70
46159;DHT22;31888;44.512;26.104;2022-08-19T00:44:56;24.30;94.60
46159;DHT22;31888;44.512;26.104;2022-08-19T00:47:01;24.40;94.50
46159;DHT22;31888;44.512;26.104;2022-08-19T00:49:17;24.40;94.60
46159;DHT22;31888;44.512;26.104;2022-08-19T00:51:24;24.40;94.40
46159;DHT22;31888;44.512;26.104;2022-08-19T00:53:30;24.40;94.50
46159;DHT22;31888;44.512;26.104;2022-08-19T00:55:37;24.40;94.70
46159;DHT22;31888;44.512;26.104;2022-08-19T00:57:48;24.50;94.60
46159;DHT22;31888;44.512;26.104;2022-08-19T00:59:54;24.40;95.00
46159;DHT22;31888;44.512;26.104;2022-08-19T01:02:07;24.40;94.30
46159;DHT22;31888;44.512;26.104;2022-08-19T01:04:12;24.50;94.30
46159;DHT22;31888;44.512;26.104;2022-08-19T01:06:17;24.40;94.50
46159;DHT22;31888;44.512;26.104;2022-08-19T01:08:22;24.40;94.40
46159;DHT22;31888;44.512;26.104;2022-08-19T01:10:31;24.20;94.80
46159;DHT22;31888;44.512;26.104;2022-08-19T01:12:39;24.20;94.80
46159;DHT22;31888;44.512;26.104;2022-08-19T01:14:45;24.10;94.90
46159;DHT22;31888;44.512;26.104;2022-08-19T01:16:51;24.10;94.80
46159;DHT22;31888;44.512;26.104;2022-08-19T01:18:57;24.10;94.90
46159;DHT22;31888;44.512;26.104;2022-08-19T01:21:05;24.10;95.00
46159;DHT22;31888;44.512;26.104;2022-08-19T01:23:14;24.00;95.10
46159;DHT22;31888;44.512;26.104;2022-08-19T01:25:22;24.00;95.00
46159;DHT22;31888;44.512;26.104;2022-08-19T01:27:38;24.00;95.10
46159;DHT22;31888;44.512;26.104;2022-08-19T01:29:46;24.00;95.10
46159;DHT22;31888;44.512;26.104;2022-08-19T01:31:50;23.90;95.40
46159;DHT22;31888;44.512;26.104;2022-08-19T01:33:57;23.90;95.50
46159;DHT22;31888;44.512;26.104;2022-08-19T01:36:07;23.90;95.40
46159;DHT22;31888;44.512;26.104;2022-08-19T01:38:24;24.00;95.60
46159;DHT22;31888;44.512;26.104;2022-08-19T01:40:32;24.00;95.60
46159;DHT22;31888;44.512;26.104;2022-08-19T01:42:36;24.00;95.40
46159;DHT22;31888;44.512;26.104;2022-08-19T01:44:41;24.00;95.40
46159;DHT22;31888;44.512;26.104;2022-08-19T01:46:47;24.00;95.50
46159;DHT22;31888;44.512;26.104;2022-08-19T01:48:52;24.00;95.20
46159;DHT22;31888;44.512;26.104;2022-08-19T01:50:56;24.10;95.30
46159;DHT22;31888;44.512;26.104;2022-08-19T01:53:02;24.10;95.10
46159;DHT22;31888;44.512;26.104;2022-08-19T01:55:15;24.10;95.00
46159;DHT22;31888;44.512;26.104;2022-08-19T01:57:20;24.00;95.10
46159;DHT22;31888;44.512;26.104;2022-08-19T01:59:25;24.10;94.80
46159;DHT22;31888;44.512;26.104;2022-08-19T02:01:29;24.20;95.00
46159;DHT22;31888;44.512;26.104;2022-08-19T02:03:35;24.20;95.00
46159;DHT22;31888;44.512;26.104;2022-08-19T02:05:40;24.00;95.20
46159;DHT22;31888;44.512;26.104;2022-08-19T02:07:45;23.70;95.80
46159;DHT22;31888;44.512;26.104;2022-08-19T02:09:50;23.70;95.90
46159;DHT22;31888;44.512;26.104;2022-08-19T02:11:56;23.60;96.00
46159;DHT22;31888;44.512;26.104;2022-08-19T02:14:04;23.50;96.60
46159;DHT22;31888;44.512;26.104;2022-08-19T02:16:10;23.50;96.40
46159;DHT22;31888;44.512;26.104;2022-08-19T02:18:15;23.40;96.70
46159;DHT22;31888;44.512;26.104;2022-08-19T02:20:20;23.40;96.70
46159;DHT22;31888;44.512;26.104;2022-08-19T02:22:25;23.40;96.90
46159;DHT22;31888;44.512;26.104;2022-08-19T02:24:30;23.40;96.80
46159;DHT22;31888;44.512;26.104;2022-08-19T02:26:35;23.50;96.80
46159;DHT22;31888;44.512;26.104;2022-08-19T02:28:42;23.60;96.80
46159;DHT22;31888;44.512;26.104;2022-08-19T02:30:47;23.60;96.70
46159;DHT22;31888;44.512;26.104;2022-08-19T02:32:51;23.60;96.70
46159;DHT22;31888;44.512;26.104;2022-08-19T02:34:56;23.70;96.40
46159;DHT22;31888;44.512;26.104;2022-08-19T02:37:00;23.70;96.40
46159;DHT22;31888;44.512;26.104;2022-08-19T02:39:05;23.50;96.70
46159;DHT22;31888;44.512;26.104;2022-08-19T02:41:13;23.40;96.90
46159;DHT22;31888;44.512;26.104;2022-08-19T02:43:18;23.20;97.20
46159;DHT22;31888;44.512;26.104;2022-08-19T02:45:26;23.10;97.40
46159;DHT22;31888;44.512;26.104;2022-08-19T02:47:31;23.10;97.50
46159;DHT22;31888;44.512;26.104;2022-08-19T02:49:36;23.20;97.10
46159;DHT22;31888;44.512;26.104;2022-08-19T02:51:42;23.10;97.40
46159;DHT22;31888;44.512;26.104;2022-08-19T02:53:47;23.00;97.40
46159;DHT22;31888;44.512;26.104;2022-08-19T02:55:52;22.90;98.00
46159;DHT22;31888;44.512;26.104;2022-08-19T02:57:57;23.00;97.70
46159;DHT22;31888;44.512;26.104;2022-08-19T03:00:05;23.00;97.80
46159;DHT22;31888;44.512;26.104;2022-08-19T03:02:12;22.90;98.00
46159;DHT22;31888;44.512;26.104;2022-08-19T03:04:18;22.90;97.90
46159;DHT22;31888;44.512;26.104;2022-08-19T03:06:23;22.90;97.80
46159;DHT22;31888;44.512;26.104;2022-08-19T03:08:28;22.70;98.40
46159;DHT22;31888;44.512;26.104;2022-08-19T03:10:33;22.70;98.40
46159;DHT22;31888;44.512;26.104;2022-08-19T03:12:38;22.70;98.30
46159;DHT22;31888;44.512;26.104;2022-08-19T03:14:45;22.60;98.50
46159;DHT22;31888;44.512;26.104;2022-08-19T03:16:52;22.70;98.50
46159;DHT22;31888;44.512;26.104;2022-08-19T03:18:59;22.80;98.40
46159;DHT22;31888;44.512;26.104;2022-08-19T03:21:14;22.80;98.30
46159;DHT22;31888;44.512;26.104;2022-08-19T03:23:21;22.80;98.30
46159;DHT22;31888;44.512;26.104;2022-08-19T03:25:26;22.70;98.30
46159;DHT22;31888;44.512;26.104;2022-08-19T03:27:30;22.60;98.80
46159;DHT22;31888;44.512;26.104;2022-08-19T03:29:37;22.40;99.20
46159;DHT22;31888;44.512;26.104;2022-08-19T03:31:45;22.40;99.30
46159;DHT22;31888;44.512;26.104;2022-08-19T03:33:54;22.40;99.20
46159;DHT22;31888;44.512;26.104;2022-08-19T03:36:10;22.50;98.90
46159;DHT22;31888;44.512;26.104;2022-08-19T03:38:15;22.60;98.70
46159;DHT22;31888;44.512;26.104;2022-08-19T03:40:23;22.60;98.60
46159;DHT22;31888;44.512;26.104;2022-08-19T03:42:29;22.80;98.60
46159;DHT22;31888;44.512;26.104;2022-08-19T03:44:51;22.80;98.60
46159;DHT22;31888;44.512;26.104;2022-08-19T03:46:58;22.80;98.60
46159;DHT22;31888;44.512;26.104;2022-08-19T03:49:04;23.00;98.50
46159;DHT22;31888;44.512;26.104;2022-08-19T03:51:18;23.20;98.30
46159;DHT22;31888;44.512;26.104;2022-08-19T03:53:34;23.40;97.70
46159;DHT22;31888;44.512;26.104;2022-08-19T03:55:40;23.50;97.50
46159;DHT22;31888;44.512;26.104;2022-08-19T03:57:45;23.70;96.90
46159;DHT22;31888;44.512;26.104;2022-08-19T03:59:51;23.90;96.80
46159;DHT22;31888;44.512;26.104;2022-08-19T04:02:08;24.10;96.60
46159;DHT22;31888;44.512;26.104;2022-08-19T04:04:13;24.40;96.00
46159;DHT22;31888;44.512;26.104;2022-08-19T04:06:25;24.60;95.90
46159;DHT22;31888;44.512;26.104;2022-08-19T04:08:30;24.90;95.20
46159;DHT22;31888;44.512;26.104;2022-08-19T04:10:35;25.00;94.80
46159;DHT22;31888;44.512;26.104;2022-08-19T04:12:40;25.20;94.50
46159;DHT22;31888;44.512;26.104;2022-08-19T04:14:45;25.60;94.10
46159;DHT22;31888;44.512;26.104;2022-08-19T04:16:50;25.90;93.50
46159;DHT22;31888;44.512;26.104;2022-08-19T04:18:56;25.90;93.20
46159;DHT22;31888;44.512;26.104;2022-08-19T04:21:04;26.10;93.30
46159;DHT22;31888;44.512;26.104;2022-08-19T04:23:11;26.30;92.80
46159;DHT22;31888;44.512;26.104;2022-08-19T04:25:15;26.50;92.40
46159;DHT22;31888;44.512;26.104;2022-08-19T04:27:20;26.70;92.50
46159;DHT22;31888;44.512;26.104;2022-08-19T04:29:25;26.80;91.60
46159;DHT22;31888;44.512;26.104;2022-08-19T04:31:32;26.90;91.60
46159;DHT22;31888;44.512;26.104;2022-08-19T04:33:38;27.30;91.30
46159;DHT22;31888;44.512;26.104;2022-08-19T04:35:46;27.70;90.50
46159;DHT22;31888;44.512;26.104;2022-08-19T04:37:51;28.10;90.10
46159;DHT22;31888;44.512;26.104;2022-08-19T04:39:57;28.50;89.80
46159;DHT22;31888;44.512;26.104;2022-08-19T04:42:18;28.60;88.90
46159;DHT22;31888;44.512;26.104;2022-08-19T04:44:40;29.00;88.30
46159;DHT22;31888;44.512;26.104;2022-08-19T04:46:49;29.00;87.30
46159;DHT22;31888;44.512;26.104;2022-08-19T04:48:54;29.00;87.70
46159;DHT22;31888;44.512;26.104;2022-08-19T04:50:59;29.30;87.60
46159;DHT22;31888;44.512;26.104;2022-08-19T04:53:04;29.50;86.20
46159;DHT22;31888;44.512;26.104;2022-08-19T04:55:12;29.70;85.70
46159;DHT22;31888;44.512;26.104;2022-08-19T04:57:17;30.00;85.40
46159;DHT22;31888;44.512;26.104;2022-08-19T04:59:21;30.20;84.10
46159;DHT22;31888;44.512;26.104;2022-08-19T05:01:27;30.60;83.40
46159;DHT22;31888;44.512;26.104;2022-08-19T05:03:33;30.80;82.80
46159;DHT22;31888;44.512;26.104;2022-08-19T05:05:39;31.00;81.50
46159;DHT22;31888;44.512;26.104;2022-08-19T05:07:46;31.20;80.60
46159;DHT22;31888;44.512;26.104;2022-08-19T05:09:51;31.30;80.60
46159;DHT22;31888;44.512;26.104;2022-08-19T05:12:02;31.50;79.90
46159;DHT22;31888;44.512;26.104;2022-08-19T05:14:09;31.70;79.50
46159;DHT22;31888;44.512;26.104;2022-08-19T05:16:16;31.90;78.70
46159;DHT22;31888;44.512;26.104;2022-08-19T05:18:21;32.10;78.00
46159;DHT22;31888;44.512;26.104;2022-08-19T05:20:43;32.30;78.10
46159;DHT22;31888;44.512;26.104;2022-08-19T05:23:06;32.10;78.70
46159;DHT22;31888;44.512;26.104;2022-08-19T05:25:24;31.90;78.40
46159;DHT22;31888;44.512;26.104;2022-08-19T05:27:30;32.10;78.10
46159;DHT22;31888;44.512;26.104;2022-08-19T05:29:35;32.40;77.50
46159;DHT22;31888;44.512;26.104;2022-08-19T05:31:40;32.60;76.40
46159;DHT22;31888;44.512;26.104;2022-08-19T05:33:44;32.70;76.30
46159;DHT22;31888;44.512;26.104;2022-08-19T05:35:49;32.80;75.90
46159;DHT22;31888;44.512;26.104;2022-08-19T05:37:54;32.90;75.30
46159;DHT22;31888;44.512;26.104;2022-08-19T05:40:01;33.00;75.10
46159;DHT22;31888;44.512;26.104;2022-08-19T05:42:09;33.20;74.80
46159;DHT22;31888;44.512;26.104;2022-08-19T05:44:16;33.00;74.70
46159;DHT22;31888;44.512;26.104;2022-08-19T05:46:21;33.10;74.60
46159;DHT22;31888;44.512;26.104;2022-08-19T05:48:30;33.50;74.10
46159;DHT22;31888;44.512;26.104;2022-08-19T05:50:35;33.70;73.30
46159;DHT22;31888;44.512;26.104;2022-08-19T05:52:40;34.00;72.60
46159;DHT22;31888;44.512;26.104;2022-08-19T05:54:52;34.20;72.50
46159;DHT22;31888;44.512;26.104;2022-08-19T05:57:00;34.30;72.10
46159;DHT22;31888;44.512;26.104;2022-08-19T05:59:05;34.10;71.90
46159;DHT22;31888;44.512;26.104;2022-08-19T06:01:15;34.20;71.90
46159;DHT22;31888;44.512;26.104;2022-08-19T06:03:20;34.60;71.30
46159;DHT22;31888;44.512;26.104;2022-08-19T06:05:25;34.80;70.40
46159;DHT22;31888;44.512;26.104;2022-08-19T06:07:29;34.90;70.60
46159;DHT22;31888;44.512;26.104;2022-08-19T06:09:34;34.90;70.70
46159;DHT22;31888;44.512;26.104;2022-08-19T06:11:42;35.00;70.20
46159;DHT22;31888;44.512;26.104;2022-08-19T06:13:49;35.20;69.70
46159;DHT22;31888;44.512;26.104;2022-08-19T06:16:02;35.10;69.60
46159;DHT22;31888;44.512;26.104;2022-08-19T06:18:09;35.00;69.40
46159;DHT22;31888;44.512;26.104;2022-08-19T06:20:15;35.30;69.60
46159;DHT22;31888;44.512;26.104;2022-08-19T06:22:42;35.30;69.70
46159;DHT22;31888;44.512;26.104;2022-08-19T06:24:46;35.60;69.20
46159;DHT22;31888;44.512;26.104;2022-08-19T06:26:57;35.30;69.40
46159;DHT22;31888;44.512;26.104;2022-08-19T06:29:04;35.30;68.80
46159;DHT22;31888;44.512;26.104;2022-08-19T06:31:09;35.10;69.20
46159;DHT22;31888;44.512;26.104;2022-08-19T06:33:18;35.00;69.30
46159;DHT22;31888;44.512;26.104;2022-08-19T06:35:22;35.00;70.20
46159;DHT22;31888;44.512;26.104;2022-08-19T06:37:28;34.90;69.30
46159;DHT22;31888;44.512;26.104;2022-08-19T06:39:39;35.20;69.30
46159;DHT22;31888;44.512;26.104;2022-08-19T06:41:45;35.40;68.40
46159;DHT22;31888;44.512;26.104;2022-08-19T06:43:56;35.30;68.70
46159;DHT22;31888;44.512;26.104;2022-08-19T06:46:01;35.50;68.00
46159;DHT22;31888;44.512;26.104;2022-08-19T06:48:08;35.60;68.30
46159;DHT22;31888;44.512;26.104;2022-08-19T06:50:14;35.70;67.70
46159;DHT22;31888;44.512;26.104;2022-08-19T06:52:20;36.00;67.40
46159;DHT22;31888;44.512;26.104;2022-08-19T06:54:28;35.80;67.60
46159;DHT22;31888;44.512;26.104;2022-08-19T06:56:32;36.10;68.00
46159;DHT22;31888;44.512;26.104;2022-08-19T06:58:37;36.10;67.60
46159;DHT22;31888;44.512;26.104;2022-08-19T07:00:41;35.90;67.40
46159;DHT22;31888;44.512;26.104;2022-08-19T07:02:46;36.20;66.30
46159;DHT22;31888;44.512;26.104;2022-08-19T07:04:59;36.40;66.10
46159;DHT22;31888;44.512;26.104;2022-08-19T07:07:10;36.10;66.00
46159;DHT22;31888;44.512;26.104;2022-08-19T07:09:22;35.90;65.90
46159;DHT22;31888;44.512;26.104;2022-08-19T07:11:27;35.90;66.40
46159;DHT22;31888;44.512;26.104;2022-08-19T07:13:31;35.70;66.70
46159;DHT22;31888;44.512;26.104;2022-08-19T07:15:39;35.90;66.30
46159;DHT22;31888;44.512;26.104;2022-08-19T07:17:47;36.10;66.00
46159;DHT22;31888;44.512;26.104;2022-08-19T07:19:54;36.20;65.90
46159;DHT22;31888;44.512;26.104;2022-08-19T07:22:01;35.80;66.10
46159;DHT22;31888;44.512;26.104;2022-08-19T07:24:07;36.20;65.90
46159;DHT22;31888;44.512;26.104;2022-08-19T07:26:14;36.20;65.10
46159;DHT22;31888;44.512;26.104;2022-08-19T07:28:18;36.50;64.40
46159;DHT22;31888;44.512;26.104;2022-08-19T07:30:26;36.50;63.50
46159;DHT22;31888;44.512;26.104;2022-08-19T07:32:33;36.00;64.40
46159;DHT22;31888;44.512;26.104;2022-08-19T07:34:41;36.00;64.20
46159;DHT22;31888;44.512;26.104;2022-08-19T07:36:45;36.00;64.20
46159;DHT22;31888;44.512;26.104;2022-08-19T07:38:52;36.20;63.80
46159;DHT22;31888;44.512;26.104;2022-08-19T07:40:59;36.40;63.60
46159;DHT22;31888;44.512;26.104;2022-08-19T07:43:04;36.10;64.10
46159;DHT22;31888;44.512;26.104;2022-08-19T07:45:13;36.40;63.50
46159;DHT22;31888;44.512;26.104;2022-08-19T07:47:20;36.20;63.80
46159;DHT22;31888;44.512;26.104;2022-08-19T07:49:45;36.30;63.60
46159;DHT22;31888;44.512;26.104;2022-08-19T07:51:53;36.70;63.00
46159;DHT22;31888;44.512;26.104;2022-08-19T07:54:35;37.00;62.70
46159;DHT22;31888;44.512;26.104;2022-08-19T07:56:42;37.50;62.40
46159;DHT22;31888;44.512;26.104;2022-08-19T07:58:49;37.20;62.50
46159;DHT22;31888;44.512;26.104;2022-08-19T08:00:54;36.60;63.10
46159;DHT22;31888;44.512;26.104;2022-08-19T08:02:59;36.20;63.90
46159;DHT22;31888;44.512;26.104;2022-08-19T08:07:52;36.60;63.40
46159;DHT22;31888;44.512;26.104;2022-08-19T08:10:14;36.60;63.00
46159;DHT22;31888;44.512;26.104;2022-08-19T08:12:27;36.20;63.60
46159;DHT22;31888;44.512;26.104;2022-08-19T08:14:42;36.40;63.80
46159;DHT22;31888;44.512;26.104;2022-08-19T08:16:50;36.70;62.90
46159;DHT22;31888;44.512;26.104;2022-08-19T08:18:55;36.90;62.90
46159;DHT22;31888;44.512;26.104;2022-08-19T08:21:04;36.30;63.60
46159;DHT22;31888;44.512;26.104;2022-08-19T08:23:08;36.30;64.20
46159;DHT22;31888;44.512;26.104;2022-08-19T08:25:29;36.20;64.00
46159;DHT22;31888;44.512;26.104;2022-08-19T08:27:39;36.20;63.60
46159;DHT22;31888;44.512;26.104;2022-08-19T08:29:44;36.10;63.70
46159;DHT22;31888;44.512;26.104;2022-08-19T08:31:49;36.40;62.10
46159;DHT22;31888;44.512;26.104;2022-08-19T08:34:04;36.50;61.90
46159;DHT22;31888;44.512;26.104;2022-08-19T08:36:09;36.20;62.30
46159;DHT22;31888;44.512;26.104;2022-08-19T08:38:14;36.00;62.90
46159;DHT22;31888;44.512;26.104;2022-08-19T08:40:23;36.20;62.40
46159;DHT22;31888;44.512;26.104;2022-08-19T08:42:34;36.30;62.60
46159;DHT22;31888;44.512;26.104;2022-08-19T08:44:47;36.40;62.30
46159;DHT22;31888;44.512;26.104;2022-08-19T08:46:57;36.40;62.30
46159;DHT22;31888;44.512;26.104;2022-08-19T08:49:04;36.20;62.60
46159;DHT22;31888;44.512;26.104;2022-08-19T08:51:16;35.50;62.70
46159;DHT22;31888;44.512;26.104;2022-08-19T08:53:37;35.00;63.20
46159;DHT22;31888;44.512;26.104;2022-08-19T08:55:44;35.20;61.70
46159;DHT22;31888;44.512;26.104;2022-08-19T08:57:55;35.10;62.00
46159;DHT22;31888;44.512;26.104;2022-08-19T09:00:07;34.80;63.60
46159;DHT22;31888;44.512;26.104;2022-08-19T09:02:18;34.90;63.30
46159;DHT22;31888;44.512;26.104;2022-08-19T09:04:23;35.40;62.90
46159;DHT22;31888;44.512;26.104;2022-08-19T09:06:35;36.00;62.40
46159;DHT22;31888;44.512;26.104;2022-08-19T09:08:49;36.30;61.20
46159;DHT22;31888;44.512;26.104;2022-08-19T09:10:58;36.60;61.10
46159;DHT22;31888;44.512;26.104;2022-08-19T09:13:41;36.80;60.70
46159;DHT22;31888;44.512;26.104;2022-08-19T09:25:00;37.70;60.00
46159;DHT22;31888;44.512;26.104;2022-08-19T09:28:08;37.40;58.90
46159;DHT22;31888;44.512;26.104;2022-08-19T09:31:05;36.90;60.00
46159;DHT22;31888;44.512;26.104;2022-08-19T09:34:01;36.80;60.30
46159;DHT22;31888;44.512;26.104;2022-08-19T09:37:07;37.10;60.70
46159;DHT22;31888;44.512;26.104;2022-08-19T09:40:15;36.80;60.70
46159;DHT22;31888;44.512;26.104;2022-08-19T09:43:31;36.80;60.20
46159;DHT22;31888;44.512;26.104;2022-08-19T09:46:27;37.20;59.30
46159;DHT22;31888;44.512;26.104;2022-08-19T09:50:13;37.50;58.40
46159;DHT22;31888;44.512;26.104;2022-08-19T09:53:15;37.40;58.20
46159;DHT22;31888;44.512;26.104;2022-08-19T09:56:21;37.20;57.90
46159;DHT22;31888;44.512;26.104;2022-08-19T10:00:12;37.20;57.30
46159;DHT22;31888;44.512;26.104;2022-08-19T10:03:26;36.80;57.80
46159;DHT22;31888;44.512;26.104;2022-08-19T10:06:42;36.20;58.90
46159;DHT22;31888;44.512;26.104;2022-08-19T11:36:13;36.60;57.70
46159;DHT22;31888;44.512;26.104;2022-08-19T11:39:09;36.60;57.60
46159;DHT22;31888;44.512;26.104;2022-08-19T11:50:54;36.50;57.70
46159;DHT22;31888;44.512;26.104;2022-08-19T12:37:54;37.30;55.40
46159;DHT22;31888;44.512;26.104;2022-08-19T12:56:30;35.40;57.80
46159;DHT22;31888;44.512;26.104;2022-08-19T13:03:32;35.40;58.00
46159;DHT22;31888;44.512;26.104;2022-08-19T13:07:51;35.30;57.70
46159;DHT22;31888;44.512;26.104;2022-08-19T13:10:12;35.50;57.50
46159;DHT22;31888;44.512;26.104;2022-08-19T13:13:17;35.70;57.10
46159;DHT22;31888;44.512;26.104;2022-08-19T13:16:19;35.80;56.30
46159;DHT22;31888;44.512;26.104;2022-08-19T13:19:53;36.00;55.90
46159;DHT22;31888;44.512;26.104;2022-08-19T13:23:46;36.30;55.30
46159;DHT22;31888;44.512;26.104;2022-08-19T13:26:46;36.50;55.00
46159;DHT22;31888;44.512;26.104;2022-08-19T13:33:46;36.10;55.00
46159;DHT22;31888;44.512;26.104;2022-08-19T13:37:37;36.20;54.50
46159;DHT22;31888;44.512;26.104;2022-08-19T13:41:42;36.10;55.10
46159;DHT22;31888;44.512;26.104;2022-08-19T14:29:07;36.00;54.30
46159;DHT22;31888;44.512;26.104;2022-08-19T15:24:32;35.50;54.80
46159;DHT22;31888;44.512;26.104;2022-08-19T15:31:23;35.30;54.90
46159;DHT22;31888;44.512;26.104;2022-08-19T15:39:50;35.70;54.50
46159;DHT22;31888;44.512;26.104;2022-08-19T15:50:19;35.20;54.80
46159;DHT22;31888;44.512;26.104;2022-08-19T15:53:36;35.10;54.80
46159;DHT22;31888;44.512;26.104;2022-08-19T15:56:21;35.10;55.30
46159;DHT22;31888;44.512;26.104;2022-08-19T15:59:45;34.90;55.70
46159;DHT22;31888;44.512;26.104;2022-08-19T16:02:44;35.00;56.50
46159;DHT22;31888;44.512;26.104;2022-08-19T16:05:29;35.00;56.30
46159;DHT22;31888;44.512;26.104;2022-08-19T16:11:50;34.60;58.60
46159;DHT22;31888;44.512;26.104;2022-08-19T16:15:08;34.20;60.50
46159;DHT22;31888;44.512;26.104;2022-08-19T16:18:52;34.00;60.80
46159;DHT22;31888;44.512;26.104;2022-08-19T16:22:28;33.50;61.60
46159;DHT22;31888;44.512;26.104;2022-08-19T16:25:34;33.40;62.30
46159;DHT22;31888;44.512;26.104;2022-08-19T16:27:59;33.30;62.80
46159;DHT22;31888;44.512;26.104;2022-08-19T16:30:16;33.30;63.00
46159;DHT22;31888;44.512;26.104;2022-08-19T16:32:21;33.30;63.00
46159;DHT22;31888;44.512;26.104;2022-08-19T16:34:25;33.10;63.20
46159;DHT22;31888;44.512;26.104;2022-08-19T16:36:30;33.00;63.40
46159;DHT22;31888;44.512;26.104;2022-08-19T16:38:35;33.00;63.40
46159;DHT22;31888;44.512;26.104;2022-08-19T16:40:40;32.90;64.00
46159;DHT22;31888;44.512;26.104;2022-08-19T16:42:48;32.80;64.10
46159;DHT22;31888;44.512;26.104;2022-08-19T16:44:55;32.70;64.40
46159;DHT22;31888;44.512;26.104;2022-08-19T16:47:01;32.70;64.30
46159;DHT22;31888;44.512;26.104;2022-08-19T16:49:07;32.70;64.20
46159;DHT22;31888;44.512;26.104;2022-08-19T16:51:12;32.60;64.20
46159;DHT22;31888;44.512;26.104;2022-08-19T16:53:20;32.50;64.60
46159;DHT22;31888;44.512;26.104;2022-08-19T16:55:33;32.40;64.80
46159;DHT22;31888;44.512;26.104;2022-08-19T16:57:38;32.40;64.80
46159;DHT22;31888;44.512;26.104;2022-08-19T16:59:43;32.50;64.80
46159;DHT22;31888;44.512;26.104;2022-08-19T17:01:54;32.40;65.10
46159;DHT22;31888;44.512;26.104;2022-08-19T17:04:12;32.30;65.40
46159;DHT22;31888;44.512;26.104;2022-08-19T17:06:24;32.30;65.30
46159;DHT22;31888;44.512;26.104;2022-08-19T17:08:30;32.20;65.80
46159;DHT22;31888;44.512;26.104;2022-08-19T17:10:36;32.00;66.10
46159;DHT22;31888;44.512;26.104;2022-08-19T17:12:41;32.00;66.40
46159;DHT22;31888;44.512;26.104;2022-08-19T17:14:48;31.90;66.80
46159;DHT22;31888;44.512;26.104;2022-08-19T17:16:54;31.80;66.50
46159;DHT22;31888;44.512;26.104;2022-08-19T17:19:01;31.80;66.90
46159;DHT22;31888;44.512;26.104;2022-08-19T17:21:09;31.80;67.20
46159;DHT22;31888;44.512;26.104;2022-08-19T17:23:16;31.80;67.10
46159;DHT22;31888;44.512;26.104;2022-08-19T17:25:21;31.70;67.20
46159;DHT22;31888;44.512;26.104;2022-08-19T17:27:39;31.40;67.60
46159;DHT22;31888;44.512;26.104;2022-08-19T17:29:43;31.30;68.00
46159;DHT22;31888;44.512;26.104;2022-08-19T17:31:49;31.30;68.10
46159;DHT22;31888;44.512;26.104;2022-08-19T17:33:55;31.20;68.00
46159;DHT22;31888;44.512;26.104;2022-08-19T17:36:01;31.10;68.10
46159;DHT22;31888;44.512;26.104;2022-08-19T17:38:09;31.00;68.00
46159;DHT22;31888;44.512;26.104;2022-08-19T17:40:15;31.00;68.40
46159;DHT22;31888;44.512;26.104;2022-08-19T17:42:28;30.90;68.50
46159;DHT22;31888;44.512;26.104;2022-08-19T17:44:37;30.90;68.70
46159;DHT22;31888;44.512;26.104;2022-08-19T17:46:42;30.90;69.00
46159;DHT22;31888;44.512;26.104;2022-08-19T17:48:51;30.80;69.00
46159;DHT22;31888;44.512;26.104;2022-08-19T17:51:12;30.80;69.00
46159;DHT22;31888;44.512;26.104;2022-08-19T17:53:18;30.60;69.40
46159;DHT22;31888;44.512;26.104;2022-08-19T17:55:23;30.60;69.40
46159;DHT22;31888;44.512;26.104;2022-08-19T17:57:28;30.50;69.50
46159;DHT22;31888;44.512;26.104;2022-08-19T17:59:33;30.40;69.90
46159;DHT22;31888;44.512;26.104;2022-08-19T18:01:39;30.50;69.80
46159;DHT22;31888;44.512;26.104;2022-08-19T18:03:56;30.40;70.60
46159;DHT22;31888;44.512;26.104;2022-08-19T18:06:02;30.40;70.30
46159;DHT22;31888;44.512;26.104;2022-08-19T18:08:09;30.30;70.20
46159;DHT22;31888;44.512;26.104;2022-08-19T18:10:15;30.20;70.40
46159;DHT22;31888;44.512;26.104;2022-08-19T18:12:22;30.20;70.50
46159;DHT22;31888;44.512;26.104;2022-08-19T18:14:32;30.30;70.40
46159;DHT22;31888;44.512;26.104;2022-08-19T18:16:37;30.30;70.20
46159;DHT22;31888;44.512;26.104;2022-08-19T18:18:42;30.40;70.40
46159;DHT22;31888;44.512;26.104;2022-08-19T18:20:48;30.30;70.40
46159;DHT22;31888;44.512;26.104;2022-08-19T18:22:53;30.20;70.40
46159;DHT22;31888;44.512;26.104;2022-08-19T18:25:01;30.10;70.60
46159;DHT22;31888;44.512;26.104;2022-08-19T18:27:06;30.20;70.60
46159;DHT22;31888;44.512;26.104;2022-08-19T18:29:14;30.10;70.60
46159;DHT22;31888;44.512;26.104;2022-08-19T18:31:21;30.20;70.60
46159;DHT22;31888;44.512;26.104;2022-08-19T18:33:26;30.10;70.60
46159;DHT22;31888;44.512;26.104;2022-08-19T18:35:32;30.10;70.80
46159;DHT22;31888;44.512;26.104;2022-08-19T18:37:38;30.10;70.60
46159;DHT22;31888;44.512;26.104;2022-08-19T18:39:45;30.10;70.80
46159;DHT22;31888;44.512;26.104;2022-08-19T18:42:12;30.00;71.10
46159;DHT22;31888;44.512;26.104;2022-08-19T18:44:34;30.00;71.20
46159;DHT22;31888;44.512;26.104;2022-08-19T18:47:01;29.90;71.40
46159;DHT22;31888;44.512;26.104;2022-08-19T18:49:29;29.90;71.50
46159;DHT22;31888;44.512;26.104;2022-08-19T18:51:34;29.90;71.50
46159;DHT22;31888;44.512;26.104;2022-08-19T18:53:40;29.80;71.40